Time;durP1;ratioP1;P1;durP2;ratioP2;P2;SDS_P1;SDS_P2;PMS_P1;PMS_P2;Temp;Humidity;BMP_temperature;BMP_pressure;BME280_temperature;BME280_humidity;BME280_pressure;Samples;Min_cycle;Max_cycle;Signal;HPM_P1;HPM_P2
2022/12/18 00:01:20;;;;;;;;;;;-2.60;99.90;;;;;;10060987;28;20043;-63
2022/12/18 00:06:11;;;;;;;19.35;7.32;;;-2.80;99.90;;;;;;10059574;28;19905;-65
2022/12/18 00:11:10;;;;;;;21.90;8.77;;;-2.80;99.90;;;;;;10061452;28;20099;-65
2022/12/18 00:16:10;;;;;;;48.03;16.90;;;-2.70;99.90;;;;;;10058846;28;20228;-63
2022/12/18 00:21:03;;;;;;;51.25;19.50;;;-2.50;99.90;;;;;;10057807;28;20029;-62
2022/12/18 00:25:54;;;;;;;37.15;13.15;;;-2.50;99.90;;;;;;10058245;28;20056;-64
2022/12/18 00:30:44;;;;;;;20.02;7.97;;;-2.80;99.90;;;;;;10058196;28;20030;-63
2022/12/18 00:35:35;;;;;;;20.58;7.95;;;-2.90;99.90;;;;;;10055386;28;20041;-63
2022/12/18 00:40:26;;;;;;;22.15;8.07;;;-2.90;99.90;;;;;;10057977;28;20458;-64
2022/12/18 00:45:16;;;;;;;19.73;7.85;;;-2.80;99.90;;;;;;10057377;28;20607;-64
2022/12/18 00:50:08;;;;;;;22.02;8.18;;;-2.90;99.90;;;;;;10039177;28;20472;-63
2022/12/18 00:54:59;;;;;;;24.52;7.90;;;-2.90;99.90;;;;;;10057503;28;20030;-64
2022/12/18 00:59:50;;;;;;;20.17;7.20;;;-2.90;99.90;;;;;;10057777;28;20037;-64
2022/12/18 01:04:40;;;;;;;12.30;7.32;;;-3.10;99.90;;;;;;10058307;28;20534;-64
2022/12/18 01:09:31;;;;;;;20.83;8.50;;;-3.00;99.90;;;;;;10039066;28;20064;-64
2022/12/18 01:14:21;;;;;;;22.42;9.15;;;-3.00;99.90;;;;;;10056126;28;20021;-65
2022/12/18 01:19:15;;;;;;;17.17;7.40;;;-3.00;99.90;;;;;;10056499;28;20045;-62
2022/12/18 01:24:06;;;;;;;19.55;7.47;;;-3.00;99.90;;;;;;10056253;28;20029;-64
2022/12/18 01:28:57;;;;;;;23.52;8.15;;;-3.30;99.90;;;;;;10055789;28;20535;-64
2022/12/18 01:33:49;;;;;;;22.55;7.72;;;-3.30;99.90;;;;;;10056125;28;20033;-63
2022/12/18 01:38:39;;;;;;;22.75;7.95;;;-3.20;99.90;;;;;;10055499;28;20038;-62
2022/12/18 01:43:52;;;;;;;21.23;8.52;;;-3.20;99.90;;;;;;10055027;28;20425;-63
2022/12/18 01:48:46;;;;;;;17.42;7.40;;;-3.10;99.90;;;;;;10052633;28;20014;-63
2022/12/18 01:53:39;;;;;;;19.33;6.85;;;-3.20;99.90;;;;;;10055389;28;20445;-63
2022/12/18 01:58:58;;;;;;;28.08;8.15;;;-3.30;99.90;;;;;;10055313;28;20052;-63
2022/12/18 02:03:49;;;;;;;16.17;6.60;;;-3.20;99.90;;;;;;10059781;28;20075;-63
2022/12/18 02:08:51;;;;;;;15.63;7.20;;;-3.30;99.90;;;;;;10059527;28;20034;-62
2022/12/18 02:14:14;;;;;;;21.08;7.90;;;-3.30;99.90;;;;;;10049366;28;20105;-63
2022/12/18 02:19:29;;;;;;;21.50;8.15;;;-3.20;99.90;;;;;;10044131;28;20080;-64
2022/12/18 02:24:54;;;;;;;15.18;6.55;;;-3.20;99.90;;;;;;10012425;28;20044;-62
2022/12/18 02:29:51;;;;;;;19.00;6.80;;;-3.10;99.90;;;;;;10059123;28;20507;-63
2022/12/18 02:34:44;;;;;;;16.17;5.93;;;-3.20;99.90;;;;;;10062670;28;20117;-63
2022/12/18 02:39:36;;;;;;;21.83;7.47;;;-3.20;99.90;;;;;;10062225;28;20033;-64
2022/12/18 02:44:27;;;;;;;18.00;7.45;;;-3.20;99.90;;;;;;10062164;28;20100;-64
2022/12/18 02:49:56;;;;;;;21.60;7.07;;;-3.20;99.90;;;;;;10061681;28;20575;-62
2022/12/18 02:55:01;;;;;;;19.40;7.30;;;-3.10;99.90;;;;;;10060787;28;20057;-64
2022/12/18 03:00:24;;;;;;;18.80;7.20;;;-3.00;99.90;;;;;;10060943;28;20101;-63
2022/12/18 03:05:23;;;;;;;25.52;6.97;;;-3.10;99.90;;;;;;10060144;28;20112;-64
2022/12/18 03:10:36;;;;;;;19.80;7.05;;;-3.20;99.90;;;;;;10061854;28;20135;-63
2022/12/18 03:15:52;;;;;;;17.35;6.70;;;-3.10;99.90;;;;;;10056771;28;20048;-63
2022/12/18 03:20:45;;;;;;;17.08;8.05;;;-3.10;99.90;;;;;;10049299;28;20081;-63
2022/12/18 03:25:41;;;;;;;22.33;7.28;;;-3.20;99.90;;;;;;10059932;28;20121;-63
2022/12/18 03:30:33;;;;;;;19.67;6.35;;;-3.10;99.90;;;;;;10060562;28;20116;-63
2022/12/18 03:35:29;;;;;;;14.40;6.88;;;-3.10;99.90;;;;;;10060531;28;20024;-63
2022/12/18 03:40:21;;;;;;;;;;;-3.10;99.90;;;;;;10060478;28;20487;-63
2022/12/18 03:45:32;;;;;;;15.32;5.78;;;-3.10;99.90;;;;;;10059626;28;19948;-63
2022/12/18 03:50:28;;;;;;;19.08;6.30;;;-3.10;99.90;;;;;;10038890;28;20402;-64
2022/12/18 03:55:20;;;;;;;15.88;5.75;;;-3.20;99.90;;;;;;10059714;28;20048;-63
2022/12/18 04:00:17;;;;;;;23.98;7.00;;;-3.10;99.90;;;;;;10058796;28;20119;-62
2022/12/18 04:05:10;;;;;;;16.48;6.55;;;-3.10;99.90;;;;;;10050855;28;20210;-62
2022/12/18 04:10:02;;;;;;;23.85;8.65;;;-3.00;99.90;;;;;;10048113;28;20048;-64
2022/12/18 04:14:53;;;;;;;32.15;7.53;;;-3.10;99.90;;;;;;10053685;28;20034;-64
2022/12/18 04:19:43;;;;;;;20.63;5.82;;;-3.10;99.90;;;;;;10056528;28;20423;-64
2022/12/18 04:24:34;;;;;;;14.43;6.20;;;-3.20;99.90;;;;;;10059763;28;20063;-63
2022/12/18 04:29:24;;;;;;;17.83;6.57;;;-3.10;99.90;;;;;;10058122;28;20064;-63
2022/12/18 04:34:15;;;;;;;18.75;6.47;;;-3.10;99.90;;;;;;10063727;28;20434;-63
2022/12/18 04:39:06;;;;;;;18.40;6.22;;;-3.10;99.90;;;;;;10057573;28;20120;-63
2022/12/18 04:43:56;;;;;;;22.52;7.25;;;-3.20;99.90;;;;;;10057481;28;20388;-63
2022/12/18 04:48:47;;;;;;;23.02;8.52;;;-3.20;99.90;;;;;;10057483;28;20029;-62
2022/12/18 04:53:37;;;;;;;22.23;5.57;;;-3.20;99.90;;;;;;10058714;28;20575;-63
2022/12/18 04:58:28;;;;;;;19.15;5.60;;;-3.10;99.90;;;;;;10042586;28;20048;-63
2022/12/18 05:03:19;;;;;;;12.40;6.60;;;-3.10;99.90;;;;;;10056557;28;20040;-63
2022/12/18 05:08:20;;;;;;;18.92;5.78;;;-3.10;99.90;;;;;;10056666;28;20118;-63
2022/12/18 05:13:11;;;;;;;11.75;5.47;;;-3.10;99.90;;;;;;10056138;28;20033;-63
2022/12/18 05:18:03;;;;;;;18.65;5.10;;;-3.10;99.90;;;;;;10061088;28;20049;-63
2022/12/18 05:22:54;;;;;;;16.85;4.28;;;-3.30;99.90;;;;;;10057941;28;20017;-63
2022/12/18 05:27:45;;;;;;;16.65;6.13;;;-3.40;99.90;;;;;;10055857;28;20049;-63
2022/12/18 05:32:36;;;;;;;16.17;4.53;;;-3.60;99.90;;;;;;10055877;28;20037;-63
2022/12/18 05:37:27;;;;;;;14.02;5.07;;;-3.70;99.90;;;;;;10054492;28;20038;-63
2022/12/18 05:42:17;;;;;;;11.82;4.18;;;-3.70;99.90;;;;;;10055512;28;20531;-63
2022/12/18 05:47:09;;;;;;;15.50;4.40;;;-3.60;99.90;;;;;;10058836;28;20502;-62
2022/12/18 05:52:00;;;;;;;12.80;4.75;;;-3.40;99.90;;;;;;10056491;28;20025;-63
2022/12/18 05:56:51;;;;;;;12.48;3.83;;;-3.60;99.90;;;;;;10055369;28;20263;-62
2022/12/18 06:01:42;;;;;;;9.90;4.75;;;-3.60;99.90;;;;;;10041550;28;20611;-62
2022/12/18 06:06:33;;;;;;;9.25;3.97;;;-3.60;99.90;;;;;;10046460;28;20029;-63
2022/12/18 06:11:26;;;;;;;19.73;6.05;;;-3.60;99.90;;;;;;10029533;28;20437;-64
2022/12/18 06:16:16;;;;;;;15.20;4.97;;;-3.60;99.90;;;;;;10051044;28;20026;-63
2022/12/18 06:21:07;;;;;;;10.23;3.70;;;-3.80;99.90;;;;;;10052241;28;20037;-63
2022/12/18 06:26:02;;;;;;;16.35;5.68;;;-3.90;99.90;;;;;;10037748;28;20058;-63
2022/12/18 06:30:53;;;;;;;19.92;5.85;;;-3.90;99.90;;;;;;10057986;28;20463;-63
2022/12/18 06:35:44;;;;;;;14.60;4.30;;;-3.90;99.90;;;;;;10054716;28;20029;-62
2022/12/18 06:40:36;;;;;;;13.23;4.35;;;-3.70;99.90;;;;;;10059324;28;20037;-63
2022/12/18 06:45:26;;;;;;;17.85;5.13;;;-3.60;99.90;;;;;;10058349;28;20029;-62
2022/12/18 06:50:17;;;;;;;14.23;5.63;;;-3.80;99.90;;;;;;10067762;28;20025;-63
2022/12/18 06:55:08;;;;;;;14.32;4.88;;;-3.80;99.90;;;;;;10064762;28;20407;-62
2022/12/18 06:59:58;;;;;;;11.63;4.50;;;-3.70;99.90;;;;;;10062468;28;20060;-63
2022/12/18 07:04:49;;;;;;;14.43;5.05;;;-3.80;99.90;;;;;;10062062;28;20105;-63
2022/12/18 07:09:40;;;;;;;14.95;5.18;;;-3.80;99.90;;;;;;10065506;28;20602;-63
2022/12/18 07:14:30;;;;;;;11.13;4.78;;;-3.90;99.90;;;;;;10061814;28;20045;-62
2022/12/18 07:19:21;;;;;;;12.10;4.57;;;-3.90;99.90;;;;;;10061936;28;20095;-63
2022/12/18 07:24:11;;;;;;;13.85;4.65;;;-4.10;99.90;;;;;;10044285;28;20060;-63
2022/12/18 07:29:02;;;;;;;11.60;4.43;;;-3.90;99.90;;;;;;10061526;28;20137;-63
2022/12/18 07:33:53;;;;;;;16.38;5.72;;;-3.80;99.90;;;;;;10060880;28;20033;-63
2022/12/18 07:38:48;;;;;;;13.20;4.70;;;-3.90;99.90;;;;;;10060305;28;20132;-63
2022/12/18 07:43:39;;;;;;;10.48;4.25;;;-3.90;99.90;;;;;;10060061;28;20029;-63
2022/12/18 07:48:30;;;;;;;17.75;5.22;;;-3.80;99.90;;;;;;10059980;28;20033;-62
2022/12/18 07:53:21;;;;;;;14.35;5.07;;;-3.80;99.90;;;;;;10062964;28;20026;-64
2022/12/18 07:58:12;;;;;;;13.40;5.75;;;-3.80;99.90;;;;;;10059310;28;20041;-62
2022/12/18 08:03:03;;;;;;;15.10;5.63;;;-3.80;99.90;;;;;;10042736;28;20029;-64
2022/12/18 08:07:54;;;;;;;13.85;4.22;;;-3.70;99.90;;;;;;10060138;28;20029;-62
2022/12/18 08:12:45;;;;;;;16.20;4.95;;;-3.70;99.90;;;;;;10059439;28;20048;-63
2022/12/18 08:17:35;;;;;;;14.07;4.90;;;-3.60;99.90;;;;;;10059636;28;20042;-62
2022/12/18 08:22:36;;;;;;;16.85;4.78;;;-3.60;99.90;;;;;;10057895;28;20056;-64
2022/12/18 08:27:39;;;;;;;11.48;4.28;;;-3.60;99.90;;;;;;10060984;28;20063;-63
2022/12/18 08:32:30;;;;;;;14.00;4.72;;;-3.60;99.90;;;;;;10062323;28;20333;-63
2022/12/18 08:37:21;;;;;;;13.93;4.90;;;-3.60;99.90;;;;;;10059752;28;20642;-63
2022/12/18 08:47:21;;;;;;;17.95;5.60;;;-3.40;99.90;;;;;;10058269;28;20080;-64
2022/12/18 08:52:12;;;;;;;14.00;6.05;;;-3.30;99.90;;;;;;10058183;28;20487;-63
2022/12/18 08:57:02;;;;;;;15.40;6.00;;;-3.30;99.90;;;;;;10057275;28;20030;-63
2022/12/18 09:01:55;;;;;;;14.43;5.05;;;-3.20;99.90;;;;;;10057904;28;20041;-64
2022/12/18 09:06:45;;;;;;;13.73;4.72;;;-3.00;99.90;;;;;;10037712;28;20034;-64
2022/12/18 09:11:36;;;;;;;15.23;6.20;;;-3.10;99.90;;;;;;10057452;28;20090;-65
2022/12/18 09:16:29;;;;;;;14.88;6.00;;;-3.10;99.90;;;;;;10058505;28;20491;-63
2022/12/18 09:21:20;;;;;;;18.30;5.03;;;-3.10;99.90;;;;;;10056838;28;20035;-62
2022/12/18 09:26:13;;;;;;;12.63;4.72;;;-3.10;99.90;;;;;;10056818;28;20055;-64
2022/12/18 09:31:07;;;;;;;14.25;4.70;;;-3.00;99.90;;;;;;10042016;28;20029;-62
2022/12/18 09:36:00;;;;;;;18.77;4.80;;;-2.90;99.90;;;;;;10056972;28;20026;-64
2022/12/18 09:41:00;;;;;;;13.07;4.65;;;-3.10;99.90;;;;;;10056505;28;20040;-64
2022/12/18 09:45:55;;;;;;;14.45;5.53;;;-3.10;99.90;;;;;;10053741;28;20491;-63
2022/12/18 09:50:47;;;;;;;17.85;5.45;;;-3.00;99.90;;;;;;10062109;28;20131;-64
2022/12/18 09:55:42;;;;;;;7.07;4.88;;;-2.80;99.90;;;;;;10057391;28;20500;-64
2022/12/18 10:00:33;;;;;;;10.67;4.53;;;-2.90;99.90;;;;;;10060414;28;20520;-63
2022/12/18 10:05:37;;;;;;;14.10;5.03;;;-2.80;99.90;;;;;;10055618;28;20275;-64
2022/12/18 10:10:36;;;;;;;15.55;5.85;;;-2.80;99.90;;;;;;10056035;28;20026;-63
2022/12/18 10:15:36;;;;;;;15.18;5.45;;;-2.60;99.90;;;;;;10057947;28;20484;-63
2022/12/18 10:20:42;;;;;;;19.92;6.03;;;-2.60;99.90;;;;;;10029347;28;20041;-62
2022/12/18 10:25:33;;;;;;;;;;;-2.40;99.90;;;;;;10054885;28;20485;-63
2022/12/18 10:30:25;;;;;;;8.35;4.43;;;-2.50;99.90;;;;;;10063538;28;19963;-63
2022/12/18 10:35:21;;;;;;;19.63;5.50;;;-2.60;99.90;;;;;;10062656;28;20034;-63
2022/12/18 10:40:15;;;;;;;20.45;5.85;;;-2.40;99.90;;;;;;10064824;28;20059;-63
2022/12/18 10:45:12;;;;;;;14.40;5.85;;;-2.30;99.90;;;;;;10062470;28;20033;-62
2022/12/18 10:50:03;;;;;;;15.90;5.68;;;-2.50;99.90;;;;;;10063423;28;20036;-62
2022/12/18 10:55:05;;;;;;;18.63;7.03;;;-2.50;99.90;;;;;;10065016;28;20108;-64
2022/12/18 10:59:58;;;;;;;16.75;5.47;;;-2.50;99.90;;;;;;10062471;28;20123;-65
2022/12/18 11:04:51;;;;;;;15.93;6.00;;;-2.50;99.90;;;;;;10061910;28;20028;-64
2022/12/18 11:09:42;;;;;;;19.90;6.03;;;-2.50;99.90;;;;;;10064455;28;20041;-64
2022/12/18 11:14:42;;;;;;;20.85;6.47;;;-2.50;99.90;;;;;;10061447;28;20230;-63
2022/12/18 11:19:38;;;;;;;16.50;6.30;;;-2.30;99.90;;;;;;10061474;28;20037;-67
2022/12/18 11:24:34;;;;;;;11.57;5.10;;;-2.40;99.90;;;;;;10061013;28;20045;-66
2022/12/18 11:29:32;;;;;;;21.05;6.50;;;-2.30;99.90;;;;;;10062138;28;20407;-64
2022/12/18 11:34:28;;;;;;;21.92;7.75;;;-2.00;99.90;;;;;;10060145;28;20025;-64
2022/12/18 11:39:39;;;;;;;17.35;7.03;;;-1.80;99.90;;;;;;10065924;28;20092;-63
2022/12/18 11:44:42;;;;;;;20.95;6.57;;;-1.90;99.90;;;;;;10055808;28;20032;-62
2022/12/18 11:49:35;;;;;;;23.98;8.35;;;-2.10;99.90;;;;;;10060129;28;20032;-66
2022/12/18 11:54:25;;;;;;;21.95;7.60;;;-2.00;99.90;;;;;;10059179;28;20577;-67
2022/12/18 11:59:30;;;;;;;19.33;6.43;;;-2.00;99.90;;;;;;10041308;28;20176;-61
2022/12/18 12:04:42;;;;;;;19.80;7.95;;;-2.00;99.90;;;;;;10054030;28;20496;-62
2022/12/18 12:09:38;;;;;;;18.85;6.60;;;-2.10;99.90;;;;;;10048332;28;20030;-62
2022/12/18 12:14:34;;;;;;;;;;;-2.00;99.90;;;;;;10056054;28;20120;-65
2022/12/18 12:19:37;;;;;;;14.27;5.97;;;-1.80;99.90;;;;;;10066101;28;19921;-64
2022/12/18 12:24:37;;;;;;;19.90;6.32;;;-2.00;99.90;;;;;;10040042;28;20557;-62
2022/12/18 12:29:51;;;;;;;25.02;6.90;;;-1.90;99.90;;;;;;10040968;28;20033;-63
2022/12/18 12:35:19;;;;;;;21.25;6.93;;;-2.00;99.90;;;;;;10059975;28;20052;-64
2022/12/18 12:40:16;;;;;;;25.05;7.47;;;-1.80;99.90;;;;;;10058920;28;20035;-66
2022/12/18 12:45:17;;;;;;;17.13;7.57;;;-1.80;99.90;;;;;;10040607;28;20029;-64
2022/12/18 12:50:15;;;;;;;25.38;8.88;;;-1.80;99.90;;;;;;10040708;28;20099;-65
2022/12/18 12:55:17;;;;;;;21.60;8.70;;;-1.70;99.90;;;;;;10057712;28;20045;-63
2022/12/18 13:00:15;;;;;;;42.65;13.85;;;-1.80;99.90;;;;;;10057333;28;20032;-64
2022/12/18 13:05:46;;;;;;;44.00;17.30;;;-1.10;99.90;;;;;;10057361;28;20541;-64
2022/12/18 13:10:41;;;;;;;30.63;10.52;;;-0.80;99.90;;;;;;10037927;28;20033;-62
2022/12/18 13:15:43;;;;;;;14.40;6.88;;;-0.90;99.90;;;;;;10056048;28;20026;-62
2022/12/18 13:20:46;;;;;;;21.85;7.55;;;-1.30;99.90;;;;;;10058339;28;20048;-59
2022/12/18 13:25:38;;;;;;;22.90;8.70;;;-1.60;99.90;;;;;;10042062;28;20048;-62
2022/12/18 13:30:31;;;;;;;30.35;8.25;;;-1.70;99.90;;;;;;10050145;28;20039;-59
2022/12/18 13:35:22;;;;;;;24.63;8.10;;;-1.80;99.90;;;;;;10053636;28;20029;-59
2022/12/18 13:40:51;;;;;;;18.73;7.50;;;-1.70;99.90;;;;;;10053133;28;20050;-59
2022/12/18 13:45:45;;;;;;;17.98;6.75;;;-1.60;99.90;;;;;;10039299;28;20080;-65
2022/12/18 13:50:35;;;;;;;15.90;7.47;;;-1.70;99.90;;;;;;10035841;28;20237;-60
2022/12/18 13:55:26;;;;;;;25.15;8.18;;;-1.70;99.90;;;;;;10047384;28;20022;-62
2022/12/18 14:00:30;;;;;;;21.42;7.70;;;-1.70;99.90;;;;;;10046745;28;20080;-61
2022/12/18 14:05:34;;;;;;;18.98;7.78;;;-1.80;99.90;;;;;;10041285;28;20029;-61
2022/12/18 14:10:25;;;;;;;23.20;7.03;;;-1.80;99.90;;;;;;10035368;28;20034;-62
2022/12/18 14:15:40;;;;;;;20.33;9.00;;;-1.90;99.90;;;;;;10039325;28;20083;-61
2022/12/18 14:20:32;;;;;;;22.33;8.35;;;-1.80;99.90;;;;;;10044053;28;20492;-63
2022/12/18 14:25:26;;;;;;;22.75;7.38;;;-1.90;99.90;;;;;;10061833;28;20049;-65
2022/12/18 14:30:25;;;;;;;22.08;8.38;;;-1.90;99.90;;;;;;10055030;28;20305;-63
2022/12/18 14:35:18;;;;;;;22.15;8.05;;;-2.00;99.90;;;;;;10056080;28;20019;-61
2022/12/18 14:40:13;;;;;;;21.63;9.48;;;-2.00;99.90;;;;;;10056897;28;20037;-62
2022/12/18 14:45:36;;;;;;;28.42;9.23;;;-2.00;99.90;;;;;;10037377;28;20029;-55
2022/12/18 14:50:26;;;;;;;19.35;8.00;;;-2.20;99.90;;;;;;10055156;28;20034;-64
2022/12/18 14:55:19;;;;;;;20.33;8.63;;;-2.10;99.90;;;;;;10055095;28;20037;-61
2022/12/18 15:00:20;;;;;;;24.40;8.60;;;-2.10;99.90;;;;;;10054775;28;20585;-62
2022/12/18 15:05:29;;;;;;;16.77;7.35;;;-2.20;99.90;;;;;;10053686;28;20488;-60
2022/12/18 15:10:23;;;;;;;21.30;7.60;;;-2.20;99.90;;;;;;10066090;28;20030;-59
2022/12/18 15:15:42;;;;;;;25.70;8.98;;;-2.20;99.90;;;;;;10061405;28;20487;-60
2022/12/18 15:20:54;;;;;;;27.20;9.48;;;-2.40;99.90;;;;;;10050483;28;20037;-57
2022/12/18 15:25:46;;;;;;;19.67;7.75;;;-2.40;99.90;;;;;;10057157;28;20041;-59
2022/12/18 15:30:37;;;;;;;17.48;7.38;;;-2.40;99.90;;;;;;10061413;28;20018;-58
2022/12/18 15:35:28;;;;;;;21.58;8.15;;;-2.50;99.90;;;;;;10056961;28;20462;-59
2022/12/18 15:40:23;;;;;;;19.90;6.70;;;-2.50;99.90;;;;;;10060370;28;20650;-60
2022/12/18 15:45:14;;;;;;;18.98;7.25;;;-2.40;99.90;;;;;;10060641;28;20025;-63
2022/12/18 15:50:05;;;;;;;23.27;8.60;;;-2.50;99.90;;;;;;10043785;28;20392;-62
2022/12/18 16:00:05;;;;;;;26.05;9.18;;;-2.40;99.90;;;;;;10058615;28;20116;-63
2022/12/18 16:04:56;;;;;;;23.30;7.45;;;-2.60;99.90;;;;;;10065782;28;20033;-64
2022/12/18 16:09:47;;;;;;;21.13;8.93;;;-2.60;99.90;;;;;;10063970;28;20112;-61
2022/12/18 16:14:37;;;;;;;18.25;8.55;;;-2.60;99.90;;;;;;10078182;28;20281;-63
2022/12/18 16:19:29;;;;;;;24.38;8.02;;;-2.60;99.90;;;;;;10086479;28;20116;-64
2022/12/18 16:24:22;;;;;;;23.17;8.38;;;-2.60;99.90;;;;;;10080195;28;20446;-65
2022/12/18 16:29:13;;;;;;;26.38;8.77;;;-2.50;99.90;;;;;;10077317;28;20124;-65
2022/12/18 16:34:31;;;;;;;22.38;7.85;;;-2.40;99.90;;;;;;10071895;28;20138;-64
2022/12/18 16:39:22;;;;;;;21.77;8.70;;;-2.50;99.90;;;;;;10056377;28;20099;-64
2022/12/18 16:44:13;;;;;;;31.33;8.20;;;-2.40;99.90;;;;;;10079359;28;20113;-61
2022/12/18 16:49:04;;;;;;;25.60;8.02;;;-2.40;99.90;;;;;;10094286;28;20035;-66
2022/12/18 16:53:56;;;;;;;26.17;8.70;;;-2.40;99.90;;;;;;10095870;23;20014;-61
2022/12/18 16:58:51;;;;;;;22.52;8.18;;;-2.50;99.90;;;;;;10083277;28;20083;-61
2022/12/18 17:03:42;;;;;;;21.17;8.35;;;-2.50;99.90;;;;;;10092446;28;20100;-62
2022/12/18 17:08:33;;;;;;;22.67;8.07;;;-2.40;99.90;;;;;;10097832;28;20499;-57
2022/12/18 17:13:26;;;;;;;25.75;10.15;;;-2.40;99.90;;;;;;10096188;28;20035;-61
2022/12/18 17:18:16;;;;;;;26.05;8.55;;;-2.40;99.90;;;;;;10107034;28;20033;-62
2022/12/18 17:23:07;;;;;;;24.08;8.73;;;-2.20;99.90;;;;;;10096747;28;20255;-64
2022/12/18 17:27:58;;;;;;;19.98;7.72;;;-2.30;99.90;;;;;;10097587;28;20463;-58
2022/12/18 17:32:48;;;;;;;22.33;9.30;;;-2.40;99.90;;;;;;10100618;28;20459;-62
2022/12/18 17:37:39;;;;;;;21.02;7.40;;;-2.40;99.90;;;;;;10087656;28;20040;-64
2022/12/18 17:42:30;;;;;;;22.15;8.45;;;-2.30;99.90;;;;;;10101225;28;20165;-63
2022/12/18 17:47:20;;;;;;;25.95;8.15;;;-2.20;99.90;;;;;;10103485;28;20104;-63
2022/12/18 17:52:11;;;;;;;22.77;9.27;;;-2.20;99.90;;;;;;10105797;28;20021;-64
2022/12/18 17:57:02;;;;;;;31.60;10.52;;;-2.30;99.90;;;;;;10131179;23;20067;-63
2022/12/18 18:01:52;;;;;;;23.52;10.45;;;-2.40;99.90;;;;;;10123503;28;20037;-60
2022/12/18 18:06:43;;;;;;;31.17;10.32;;;-2.50;99.90;;;;;;10137240;28;20337;-62
2022/12/18 18:16:48;;;;;;;23.83;9.15;;;-2.30;99.90;;;;;;10122082;28;20047;-64
2022/12/18 18:21:41;;;;;;;24.48;11.25;;;-2.20;99.90;;;;;;10136405;28;20043;-63
2022/12/18 18:26:34;;;;;;;25.65;10.23;;;-2.10;99.90;;;;;;10131397;28;20052;-62
2022/12/18 18:31:26;;;;;;;23.27;9.43;;;-2.10;99.90;;;;;;10139188;28;20098;-68
2022/12/18 18:36:16;;;;;;;34.53;10.27;;;-2.00;99.90;;;;;;10136084;28;20024;-61
2022/12/18 18:41:07;;;;;;;21.60;9.48;;;-2.20;99.90;;;;;;10089185;28;20048;-61
2022/12/18 18:46:00;;;;;;;23.02;8.43;;;-2.00;99.90;;;;;;10139674;28;20021;-61
2022/12/18 18:51:01;;;;;;;23.83;10.50;;;-2.00;99.90;;;;;;10134275;28;20067;-60
2022/12/18 18:55:52;;;;;;;20.98;9.25;;;-1.90;99.90;;;;;;10130588;28;20474;-61
2022/12/18 19:00:43;;;;;;;26.52;8.85;;;-1.90;99.90;;;;;;10128732;28;20051;-60
2022/12/18 19:05:34;;;;;;;26.27;8.10;;;-1.80;99.90;;;;;;10111532;28;20025;-61
2022/12/18 19:10:24;;;;;;;25.83;10.10;;;-2.00;99.90;;;;;;10106944;28;20519;-61
2022/12/18 19:15:15;;;;;;;22.30;10.07;;;-1.90;99.90;;;;;;10127449;28;20028;-61
2022/12/18 19:20:06;;;;;;;26.83;10.25;;;-1.90;99.90;;;;;;10132392;28;20438;-61
2022/12/18 19:24:57;;;;;;;25.15;8.10;;;-2.10;99.90;;;;;;10113564;28;20025;-61
2022/12/18 19:29:48;;;;;;;21.45;8.80;;;-2.00;99.90;;;;;;10104492;28;20036;-61
2022/12/18 19:34:39;;;;;;;27.67;8.80;;;-2.00;99.90;;;;;;10129739;28;20024;-62
2022/12/18 19:39:29;;;;;;;22.02;9.00;;;-2.10;99.90;;;;;;10114872;28;20044;-62
2022/12/18 19:44:20;;;;;;;22.75;10.32;;;-1.90;99.90;;;;;;10129235;28;20028;-62
2022/12/18 19:49:12;;;;;;;21.88;8.40;;;-2.10;99.90;;;;;;10132802;28;20028;-62
2022/12/18 19:54:03;;;;;;;23.55;9.77;;;-2.20;99.90;;;;;;10125175;28;20027;-69
2022/12/18 19:58:54;;;;;;;23.02;9.52;;;-2.10;99.90;;;;;;10122000;28;20541;-63
2022/12/18 20:03:45;;;;;;;28.52;10.80;;;-2.10;99.90;;;;;;10122020;28;20111;-60
2022/12/18 20:08:36;;;;;;;26.27;9.82;;;-2.00;99.90;;;;;;10113284;28;20443;-62
2022/12/18 20:13:27;;;;;;;24.30;10.05;;;-2.00;99.90;;;;;;10115324;28;20028;-61
2022/12/18 20:18:17;;;;;;;22.73;8.80;;;-2.20;99.90;;;;;;10137900;28;20039;-60
2022/12/18 20:23:08;;;;;;;25.13;9.18;;;-2.10;99.90;;;;;;10134900;28;20032;-62
2022/12/18 20:27:59;;;;;;;27.75;9.98;;;-2.10;99.90;;;;;;10138769;28;20033;-59
2022/12/18 20:32:53;;;;;;;22.08;7.90;;;-2.00;99.90;;;;;;10125789;28;20044;-59
2022/12/18 20:37:47;;;;;;;27.40;9.70;;;-2.00;99.90;;;;;;10116297;28;20052;-60
2022/12/18 20:42:38;;;;;;;24.52;9.48;;;-1.90;99.90;;;;;;10121529;28;20137;-59
2022/12/18 20:47:28;;;;;;;22.77;8.45;;;-1.90;99.90;;;;;;10127470;28;20206;-62
2022/12/18 20:52:19;;;;;;;28.92;9.40;;;-1.80;99.90;;;;;;10125734;28;20521;-65
2022/12/18 20:57:09;;;;;;;20.50;8.43;;;-1.80;99.90;;;;;;10120984;28;20487;-70
2022/12/18 21:02:00;;;;;;;24.77;8.80;;;-1.70;99.90;;;;;;10114372;28;20040;-63
2022/12/18 21:06:51;;;;;;;17.10;7.88;;;-1.70;99.90;;;;;;10118715;28;20025;-55
2022/12/18 21:16:52;;;;;;;24.55;9.75;;;-1.70;99.90;;;;;;10134801;28;20101;-62
2022/12/18 21:21:44;;;;;;;25.60;9.00;;;-1.70;99.90;;;;;;10137714;28;20036;-65
2022/12/18 21:26:35;;;;;;;21.85;9.20;;;-1.60;99.90;;;;;;10129689;28;20023;-61
2022/12/18 21:31:30;;;;;;;20.17;8.93;;;-1.60;99.90;;;;;;10122228;28;20102;-65
2022/12/18 21:36:24;;;;;;;22.80;8.93;;;-1.80;99.90;;;;;;10132949;28;20051;-63
2022/12/18 21:44:04;;;;;;;23.70;9.38;;;-1.80;99.90;;;;;;10098775;28;20033;-62
2022/12/18 21:46:25;;;;;;;26.35;11.13;;;-1.70;99.90;;;;;;10107925;28;20032;-69
2022/12/18 21:51:16;;;;;;;23.67;9.23;;;-1.80;99.90;;;;;;10102120;28;20526;-60
2022/12/18 21:56:06;;;;;;;28.42;10.05;;;-1.80;99.90;;;;;;10112452;28;20048;-59
2022/12/18 22:00:57;;;;;;;27.60;11.18;;;-1.60;99.90;;;;;;10114792;28;20155;-61
2022/12/18 22:05:48;;;;;;;24.58;10.10;;;-1.60;99.90;;;;;;10126321;28;20027;-60
2022/12/18 22:10:38;;;;;;;26.90;11.60;;;-1.50;99.90;;;;;;10093683;28;20036;-61
2022/12/18 22:15:29;;;;;;;29.15;9.70;;;-1.50;99.90;;;;;;10114666;28;20113;-61
2022/12/18 22:20:20;;;;;;;25.60;10.35;;;-1.60;99.90;;;;;;10132443;28;20104;-65
2022/12/18 22:25:11;;;;;;;24.83;10.07;;;-1.50;99.90;;;;;;10117277;28;20031;-73
2022/12/18 22:30:07;;;;;;;25.30;9.80;;;-1.50;99.90;;;;;;10130475;28;20032;-62
2022/12/18 22:34:59;;;;;;;27.50;8.68;;;-1.50;99.90;;;;;;10119769;28;20054;-75
2022/12/18 22:39:49;;;;;;;23.45;8.98;;;-1.40;99.90;;;;;;10123882;28;20048;-66
2022/12/18 22:44:40;;;;;;;24.27;11.48;;;-1.40;99.90;;;;;;10114081;28;20042;-67
2022/12/18 22:49:31;;;;;;;29.25;11.13;;;-1.50;99.90;;;;;;10131049;28;20029;-58
2022/12/18 22:54:22;;;;;;;30.52;11.40;;;-1.40;99.90;;;;;;10126393;28;20039;-73
2022/12/18 22:59:18;;;;;;;27.77;10.80;;;-1.40;99.90;;;;;;10147135;28;20113;-60
2022/12/18 23:04:10;;;;;;;23.00;9.15;;;-1.40;99.90;;;;;;10131048;28;20032;-69
2022/12/18 23:09:00;;;;;;;23.02;9.77;;;-1.40;99.90;;;;;;10123691;28;20025;-64
2022/12/18 23:13:52;;;;;;;23.10;8.43;;;-1.40;99.90;;;;;;10142234;22;20457;-65
2022/12/18 23:18:43;;;;;;;24.40;9.40;;;-1.30;99.90;;;;;;10015864;28;20575;-65
2022/12/18 23:23:35;;;;;;;17.75;8.68;;;-1.20;99.90;;;;;;10021193;28;20022;-65
2022/12/18 23:28:25;;;;;;;18.45;8.93;;;-1.20;99.90;;;;;;10021455;28;20594;-68
2022/12/18 23:33:16;;;;;;;26.05;10.18;;;-1.10;99.90;;;;;;10019933;28;20126;-66
2022/12/18 23:38:06;;;;;;;25.50;10.50;;;-1.10;99.90;;;;;;10022059;28;20045;-66
2022/12/18 23:42:58;;;;;;;24.30;10.57;;;-1.00;99.90;;;;;;10020923;28;20068;-65
2022/12/18 23:47:49;;;;;;;22.02;9.25;;;-1.10;99.90;;;;;;10016533;28;20033;-67
2022/12/18 23:52:40;;;;;;;21.15;8.85;;;-1.00;99.90;;;;;;10020617;28;20022;-66
2022/12/18 23:57:30;;;;;;;19.75;8.80;;;-1.00;99.90;;;;;;10020124;28;20026;-65
